Terminal Aerodrome Forecast
Issued by NWS Omaha/Valley, NE

Home | Current Version | Previous Version | Graphics & Text | Print | Product List | Glossary On
Versions: 1 2 3 4 5 6 7 8 9 10 11 12 13 14 15 16 17 18 19 20 21 22 23
000
FTUS43 KOAX 201052 AAD
TAFOFK
TAF AMD
KOFK 201052Z 2011/2106 15006KT 5SM BR OVC003
      TEMPO 2011/2012 3/4SM BR
     FM201200 15005KT 1/2SM FG OVC002
     FM201600 15006KT 3SM BR OVC008
     FM210000 14005KT 4SM BR OVC005=

USA.gov is the U.S. government's official web portal to all federal, state and local government web resources and services.